Allendale, New Jersey
Current Conditions -  °F | °C
As of 10:51 AM on Sunday 23 Nov 2014 (Local Time) from KTEB Reporting Station
Few Clouds Few Clouds  
Wind Chill: 45°   Ceiling: Unl
Heat Index: 49°   Visibility: 10mi
Dew Point: 23°   Wind: 9mph
Humidity: 36%   Direction: 200°SSW
Pressure: 30.18"   Gusts: NA
Location:  41.03°N, 74.14°W
Report Text: KTEB 231551Z 20008KT 10SM FEW110 09/M05 A3018 RMK AO2 SLP219 T00941050
Loading
Personal Weather Stations






























Interactive Weather Map New forecast layout! Learn more

10-Day Weather Forecast

Advertisements
Track Severe Weather on mobile